Time,TemperatureF,DewpointF,PressureIn,WindDirection,WindDirectionDegrees,WindSpeedMPH,WindSpeedGustMPH,Humidity,HourlyPrecipIn,Conditions,Clouds,dailyrainin,SoftwareType,DateUTC
2013-06-19 00:02:00,47.0,-99.9,-100.00,WSW,242,1.0,2.0,-999,-99.99,,,-99.99,,2013-06-19 04:02:00,
2013-06-19 01:01:00,47.0,-99.9,-100.00,South,184,0.0,1.0,-999,-99.99,,,-99.99,,2013-06-19 05:01:00,
2013-06-19 01:40:00,47.0,-99.9,-100.00,NNW,334,1.0,4.0,-999,-99.99,,,-99.99,,2013-06-19 05:40:00,
2013-06-19 02:02:00,47.0,-99.9,-100.00,NNW,334,1.0,4.0,-999,-99.99,,,-99.99,,2013-06-19 06:02:00,
2013-06-19 02:34:00,47.0,-99.9,-100.00,NNW,334,1.0,4.0,-999,-99.99,,,-99.99,,2013-06-19 06:34:00,
2013-06-19 02:40:00,46.0,-99.9,-100.00,SSE,168,1.0,2.0,-999,-99.99,,,-99.99,,2013-06-19 06:40:00,
2013-06-19 03:02:00,46.0,-99.9,-100.00,SSE,168,1.0,2.0,-999,-99.99,,,-99.99,,2013-06-19 07:02:00,
2013-06-19 03:12:00,46.0,-99.9,-100.00,SSE,168,1.0,2.0,-999,-99.99,,,-99.99,,2013-06-19 07:12:00,
2013-06-19 03:23:00,46.0,-99.9,-100.00,SSE,168,1.0,2.0,-999,-99.99,,,-99.99,,2013-06-19 07:23:00,
2013-06-19 03:33:00,46.0,-99.9,-100.00,SSE,168,1.0,2.0,-999,-99.99,,,-99.99,,2013-06-19 07:33:00,
2013-06-19 03:40:00,47.0,-99.9,-100.00,NNW,335,0.0,4.0,-999,-99.99,,,-99.99,,2013-06-19 07:40:00,
2013-06-19 04:02:00,47.0,-99.9,-100.00,NNW,335,0.0,4.0,-999,-99.99,,,-99.99,,2013-06-19 08:02:00,
2013-06-19 04:11:00,47.0,-99.9,-100.00,NNW,335,0.0,4.0,-999,-99.99,,,-99.99,,2013-06-19 08:11:00,
2013-06-19 04:22:00,47.0,-99.9,-100.00,NNW,335,0.0,4.0,-999,-99.99,,,-99.99,,2013-06-19 08:22:00,
2013-06-19 04:34:00,47.0,-99.9,-100.00,NNW,335,0.0,4.0,-999,-99.99,,,-99.99,,2013-06-19 08:34:00,
2013-06-19 05:02:00,46.0,-99.9,-100.00,North,359,1.0,3.0,-999,-99.99,,,-99.99,,2013-06-19 09:02:00,
2013-06-19 05:12:00,46.0,-99.9,-100.00,North,359,1.0,3.0,-999,-99.99,,,-99.99,,2013-06-19 09:12:00,
2013-06-19 05:22:00,46.0,-99.9,-100.00,North,359,1.0,3.0,-999,-99.99,,,-99.99,,2013-06-19 09:22:00,
2013-06-19 06:02:00,45.0,-99.9,-100.00,North,-999,0.0,2.0,-999,-99.99,,,-99.99,,2013-06-19 10:02:00,
2013-06-19 07:02:00,59.0,-99.9,-100.00,SW,216,5.0,13.0,-999,-99.99,,,-99.99,,2013-06-19 11:02:00,
2013-06-19 07:12:00,59.0,-99.9,-100.00,SW,216,5.0,13.0,-999,-99.99,,,-99.99,,2013-06-19 11:12:00,
2013-06-19 07:22:00,59.0,-99.9,-100.00,SW,216,5.0,13.0,-999,-99.99,,,-99.99,,2013-06-19 11:22:00,
2013-06-19 07:33:00,58.0,-99.9,-100.00,SSW,193,5.0,14.0,-999,-99.99,,,-99.99,,2013-06-19 11:33:00,
2013-06-19 07:40:00,61.0,-99.9,-100.00,ENE,67,1.0,11.0,-999,-99.99,,,-99.99,,2013-06-19 11:40:00,
2013-06-19 07:43:00,58.0,-99.9,-100.00,SSW,193,5.0,14.0,-999,-99.99,,,-99.99,,2013-06-19 11:43:00,
2013-06-19 07:54:00,58.0,-99.9,-100.00,SSW,193,5.0,14.0,-999,-99.99,,,-99.99,,2013-06-19 11:54:00,
2013-06-19 08:02:00,61.0,-99.9,-100.00,ENE,67,1.0,11.0,-999,-99.99,,,-99.99,,2013-06-19 12:02:00,
2013-06-19 08:12:00,61.0,-99.9,-100.00,ENE,67,1.0,11.0,-999,-99.99,,,-99.99,,2013-06-19 12:12:00,
2013-06-19 08:22:00,61.0,-99.9,-100.00,ENE,67,1.0,11.0,-999,-99.99,,,-99.99,,2013-06-19 12:22:00,
2013-06-19 08:34:00,61.0,-99.9,-100.00,ENE,67,1.0,11.0,-999,-99.99,,,-99.99,,2013-06-19 12:34:00,
2013-06-19 08:40:00,62.0,-99.9,-100.00,NNE,32,4.0,5.0,-999,-99.99,,,-99.99,,2013-06-19 12:40:00,
2013-06-19 09:02:00,62.0,-99.9,-100.00,NNE,32,4.0,5.0,-999,-99.99,,,-99.99,,2013-06-19 13:02:00,
2013-06-19 09:12:00,62.0,-99.9,-100.00,NNE,32,4.0,5.0,-999,-99.99,,,-99.99,,2013-06-19 13:12:00,
2013-06-19 09:22:00,62.0,-99.9,-100.00,NNE,32,4.0,5.0,-999,-99.99,,,-99.99,,2013-06-19 13:22:00,
2013-06-19 09:33:00,62.0,-99.9,-100.00,NNE,32,4.0,5.0,-999,-99.99,,,-99.99,,2013-06-19 13:33:00,
2013-06-19 09:40:00,66.0,-99.9,-100.00,SSW,205,2.0,12.0,-999,-99.99,,,-99.99,,2013-06-19 13:40:00,
2013-06-19 10:02:00,66.0,-99.9,-100.00,SSW,205,2.0,12.0,-999,-99.99,,,-99.99,,2013-06-19 14:02:00,
2013-06-19 10:12:00,66.0,-99.9,-100.00,SSW,205,2.0,12.0,-999,-99.99,,,-99.99,,2013-06-19 14:12:00,
2013-06-19 10:23:00,66.0,-99.9,-100.00,SSW,205,2.0,12.0,-999,-99.99,,,-99.99,,2013-06-19 14:23:00,
2013-06-19 10:34:00,66.0,-99.9,-100.00,SSW,205,2.0,12.0,-999,-99.99,,,-99.99,,2013-06-19 14:34:00,
2013-06-19 10:40:00,59.0,-99.9,-100.00,North,7,7.0,10.0,-999,-99.99,,,-99.99,,2013-06-19 14:40:00,
2013-06-19 11:02:00,59.0,-99.9,-100.00,North,7,7.0,10.0,-999,-99.99,,,-99.99,,2013-06-19 15:02:00,
2013-06-19 11:11:00,59.0,-99.9,-100.00,North,7,7.0,10.0,-999,-99.99,,,-99.99,,2013-06-19 15:11:00,
2013-06-19 11:22:00,59.0,-99.9,-100.00,North,7,7.0,10.0,-999,-99.99,,,-99.99,,2013-06-19 15:22:00,
2013-06-19 11:33:00,59.0,-99.9,-100.00,North,7,7.0,10.0,-999,-99.99,,,-99.99,,2013-06-19 15:33:00,
2013-06-19 12:02:00,57.0,-99.9,-100.00,North,7,8.0,10.0,-999,-99.99,,,-99.99,,2013-06-19 16:02:00,
2013-06-19 13:02:00,57.0,-99.9,-100.00,North,360,7.0,9.0,-999,-99.99,,,-99.99,,2013-06-19 17:02:00,
2013-06-19 14:02:00,62.0,-99.9,-100.00,North,11,5.0,5.0,-999,-99.99,,,-99.99,,2013-06-19 18:02:00,
2013-06-19 15:02:00,62.0,-99.9,-100.00,North,359,6.0,7.0,-999,-99.99,,,-99.99,,2013-06-19 19:02:00,
2013-06-19 16:02:00,60.0,-99.9,-100.00,North,352,5.0,8.0,-999,-99.99,,,-99.99,,2013-06-19 20:02:00,
2013-06-19 17:02:00,61.0,-99.9,-100.00,North,351,7.0,8.0,-999,-99.99,,,-99.99,,2013-06-19 21:02:00,
2013-06-19 18:02:00,62.0,-99.9,-100.00,North,2,6.0,6.0,-999,-99.99,,,-99.99,,2013-06-19 22:02:00,
2013-06-19 18:40:00,67.0,-99.9,-100.00,NNE,13,1.0,4.0,-999,-99.99,,,-99.99,,2013-06-19 22:40:00,
2013-06-19 19:02:00,67.0,-99.9,-100.00,NNE,13,1.0,4.0,-999,-99.99,,,-99.99,,2013-06-19 23:02:00,
2013-06-19 19:34:00,67.0,-99.9,-100.00,NNE,13,1.0,4.0,-999,-99.99,,,-99.99,,2013-06-19 23:34:00,
2013-06-19 20:02:00,61.0,-99.9,-100.00,North,356,4.0,6.0,-999,-99.99,,,-99.99,,2013-06-20 00:02:00,
2013-06-19 21:02:00,60.0,-99.9,-100.00,South,176,1.0,1.0,-999,-99.99,,,-99.99,,2013-06-20 01:02:00,
2013-06-19 22:02:00,59.0,-99.9,-100.00,SSW,202,1.0,2.0,-999,-99.99,,,-99.99,,2013-06-20 02:02:00,
2013-06-19 22:40:00,60.0,-99.9,-100.00,South,183,3.0,5.0,-999,-99.99,,,-99.99,,2013-06-20 02:40:00,
2013-06-19 23:02:00,60.0,-99.9,-100.00,South,183,3.0,5.0,-999,-99.99,,,-99.99,,2013-06-20 03:02:00,
2013-06-19 23:12:00,60.0,-99.9,-100.00,South,183,3.0,5.0,-999,-99.99,,,-99.99,,2013-06-20 03:12:00,
2013-06-19 23:22:00,60.0,-99.9,-100.00,South,183,3.0,5.0,-999,-99.99,,,-99.99,,2013-06-20 03:22:00,
2013-06-19 23:33:00,60.0,-99.9,-100.00,South,183,3.0,5.0,-999,-99.99,,,-99.99,,2013-06-20 03:33:00,
2013-06-19 23:40:00,69.0,-99.9,-100.00,SSW,196,6.0,11.0,-999,-99.99,,,-99.99,,2013-06-20 03:40:00,